Kedon, Russia
Current Conditions -  °F | °C
As of 12:00 AM on Sunday 26 Oct 2014 (Local Time) from UHMM Reporting Station
Clear Clear  
Wind Chill: -8°   Ceiling: Unl
Heat Index: -8°   Visibility: 6mi
Dew Point: -11°   Wind: 0mph
Humidity: 84%   Direction: NA
Pressure: 29.77"   Gusts: NA
Location:  64°N, 158.92°E
Report Text: UHMM 251300Z 00000MPS 9999 SKC M22/M24 Q1008 RMK QFE741
Loading
Personal Weather Stations






























Interactive Weather Map
Tropical Storm Tracking
New forecast layout! Learn more

10-Day Weather Forecast

Advertisements
Track Severe Weather on mobile